Flight Track Log - Related Links

Times and Time Zones

All times are in EST time to prevent confusion due to time zone crossing. See the N712WB flight status page for this flight to view local times or setup timezone preferences in your user account.

Time Position Orientation Groundspeed Altitude Reporting Facility
EST Latitude Longitude Course Direction KTS MPH feet Rate Location/Type
Tue 01:42:24 PM 45.7192 -111.0703 131° Southeast 241 277 7,900  Level Salt Lake Center
Tue 01:42:37 PM 45.7083 -111.0522 131° Southeast 226 260 8,300 1,395 Climbing Salt Lake Center
Tue 01:43:07 PM 45.6847 -111.0181 135° Southeast 234 269 8,900 1,839 Climbing Salt Lake Center
Tue 01:43:39 PM 45.6631 -110.9569 117° Southeast 295 339 10,200 1,851 Climbing Salt Lake Center
Tue 01:44:41 PM 45.6469 -110.8231 100° East 338 389 11,800 2,098 Climbing Salt Lake Center
Tue 01:45:42 PM 45.5717 -110.7314 140° Southeast 355 409 14,500 2,244 Climbing Salt Lake Center
Tue 01:46:44 PM 45.4844 -110.6503 147° Southeast 365 420 16,400 1,742 Climbing Salt Lake Center
Tue 01:47:46 PM 45.3969 -110.5711 148° Southeast 376 433 18,100 1,707 Climbing Salt Lake Center
Tue 01:48:47 PM 45.3064 -110.4856 146° Southeast 390 449 19,900 1,854 Climbing Salt Lake Center
Tue 01:49:49 PM 45.2125 -110.4006 147° Southeast 399 459 21,900 1,935 Climbing Salt Lake Center
Tue 01:50:51 PM 45.1003 -110.2975 147° Southeast 408 470 23,900 1,805 Climbing Salt Lake Center
Tue 01:51:52 PM 45.0044 -110.2106 147° Southeast 424 488 25,600 1,902 Climbing Salt Lake Center
Tue 01:52:54 PM 44.9097 -110.1147 144° Southeast 436 502 27,800 2,226 Climbing Salt Lake Center
Tue 01:53:56 PM 44.8072 -109.9794 137° Southeast 449 517 30,200 2,195 Climbing Salt Lake Center
Tue 01:54:57 PM 44.7144 -109.8614 138° Southeast 465 535 32,300 2,000 Climbing Salt Lake Center
Tue 01:55:59 PM 44.6178 -109.7378 138° Southeast 474 545 34,300 2,226 Climbing Salt Lake Center
Tue 01:57:01 PM 44.5150 -109.6047 137° Southeast 466 536 36,900 1,887 Climbing Salt Lake Center
Tue 01:58:03 PM 44.4244 -109.4897 138° Southeast 460 529 38,200 976 Climbing Salt Lake Center
Tue 01:59:04 PM 44.3089 -109.3458 138° Southeast 486 559 38,900 878 Climbing Salt Lake Center
Tue 02:00:06 PM 44.2061 -109.2164 138° Southeast 498 573 40,000 1,016 Climbing Salt Lake Center
Tue 02:01:08 PM 44.1036 -109.0889 138° Southeast 498 573 41,000 484 Climbing Salt Lake Center
Tue 02:02:10 PM 43.9967 -108.9564 138° Southeast 512 589 41,000  Level Salt Lake Center
Tue 02:03:11 PM 43.8856 -108.8194 138° Southeast 531 611 41,000  Level Salt Lake Center
Tue 02:04:13 PM 43.7492 -108.6525 138° Southeast 545 627 41,000  Level Salt Lake Center
Tue 02:05:15 PM 43.6353 -108.5119 138° Southeast 550 633 41,000  Level Salt Lake Center
Tue 02:06:17 PM 43.5211 -108.3728 139° Southeast 551 634 41,000  Level Salt Lake Center
Tue 02:07:18 PM 43.4222 -108.2144 131° Southeast 551 634 41,000  Level Salt Lake Center
Tue 02:08:20 PM 43.3419 -108.0339 121° Southeast 555 639 41,000  Level Salt Lake Center
Tue 02:09:22 PM 43.2611 -107.8544 122° Southeast 556 640 41,000  Level Salt Lake Center
Tue 02:10:23 PM 43.1636 -107.6397 122° Southeast 555 639 41,000  Level Salt Lake Center
Tue 02:11:25 PM 43.0836 -107.4614 122° Southeast 553 636 41,000  Level Salt Lake Center
Tue 02:12:27 PM 43.0017 -107.2856 122° Southeast 552 635 41,000  Level Salt Lake Center
Tue 02:13:29 PM 42.9206 -107.1069 122° Southeast 557 641 41,000  Level Salt Lake Center
Tue 02:14:09 PM 42.8583 -106.9711 122° Southeast 553 636 41,000  Level Denver Center
Tue 02:15:11 PM 42.7797 -106.8028 122° Southeast 552 635 41,000  Level Denver Center
Tue 02:16:13 PM 42.6997 -106.6336 123° Southeast 555 639 41,000  Level Denver Center
Tue 02:17:15 PM 42.6064 -106.4361 123° Southeast 557 641 41,000  Level Denver Center
Tue 02:18:17 PM 42.5261 -106.2675 123° Southeast 558 642 41,000  Level Denver Center
Tue 02:19:19 PM 42.4317 -106.0711 123° Southeast 558 642 41,000  Level Denver Center
Tue 02:20:21 PM 42.3517 -105.9047 123° Southeast 554 638 41,000  Level Denver Center
Tue 02:21:23 PM 42.2575 -105.7111 123° Southeast 553 636 41,000  Level Denver Center
Tue 02:22:25 PM 42.1781 -105.5469 123° Southeast 549 632 41,000  Level Denver Center
Tue 02:23:27 PM 42.0839 -105.3550 123° Southeast 552 635 41,000  Level Denver Center
Tue 02:24:29 PM 42.0033 -105.1906 123° Southeast 553 636 41,000  Level Denver Center
Tue 02:25:31 PM 41.9083 -104.9997 124° Southeast 553 636 41,000  Level Denver Center
Tue 02:26:33 PM 41.8272 -104.8375 124° Southeast 552 635 41,000  Level Denver Center
Tue 02:27:35 PM 41.7331 -104.6469 123° Southeast 552 635 41,000  Level Denver Center
Tue 02:28:36 PM 41.6500 -104.4844 124° Southeast 555 639 41,000  Level Denver Center
Tue 02:29:39 PM 41.5528 -104.2928 124° Southeast 560 644 41,000  Level Denver Center
Tue 02:30:40 PM 41.4692 -104.1275 124° Southeast 563 648 41,000 49 Level Denver Center
Tue 02:31:42 PM 41.3697 -103.9353 125° Southeast 565 650 41,100  Climbing Denver Center
Tue 02:32:44 PM 41.2847 -103.7714 125° Southeast 563 648 41,000 -48 Descending Denver Center
Tue 02:33:46 PM 41.1853 -103.5797 125° Southeast 566 651 41,000  Level Denver Center
Tue 02:34:48 PM 41.1011 -103.4167 124° Southeast 562 647 41,000  Level Denver Center
Tue 02:35:50 PM 41.0022 -103.2281 125° Southeast 558 642 41,000  Level Denver Center
Tue 02:36:52 PM 40.9231 -103.0794 125° Southeast 556 640 41,000  Level Denver Center
Tue 02:37:54 PM 40.8194 -102.8844 125° Southeast 555 639 41,000  Level Denver Center
Tue 02:38:56 PM 40.7347 -102.7253 125° Southeast 555 639 41,000  Level Denver Center
Tue 02:39:58 PM 40.6347 -102.5394 125° Southeast 556 640 41,000  Level Denver Center
Tue 02:41:00 PM 40.5492 -102.3808 125° Southeast 556 640 41,000  Level Denver Center
Tue 02:42:02 PM 40.4497 -102.1975 125° Southeast 554 638 41,000  Level Denver Center
Tue 02:43:04 PM 40.3636 -102.0411 126° Southeast 554 638 41,000  Level Denver Center
Tue 02:44:06 PM 40.2781 -101.8836 125° Southeast 556 640 41,000  Level Denver Center
Tue 02:45:08 PM 40.1767 -101.7011 126° Southeast 557 641 41,000  Level Denver Center
Tue 02:46:10 PM 40.0906 -101.5450 126° Southeast 557 641 41,000  Level Denver Center
Tue 02:47:12 PM 39.9897 -101.3642 126° Southeast 555 639 41,000  Level Denver Center
Tue 02:48:14 PM 39.9028 -101.2086 126° Southeast 557 641 41,000  Level Denver Center
Tue 02:49:16 PM 39.8017 -101.0292 126° Southeast 555 639 41,000  Level Denver Center
Tue 02:50:18 PM 39.7139 -100.8744 126° Southeast 556 640 41,000  Level Denver Center
Tue 02:51:20 PM 39.6114 -100.6947 126° Southeast 555 639 41,000  Level Denver Center
Tue 02:52:22 PM 39.5233 -100.5403 126° Southeast 557 641 41,000  Level Denver Center
Tue 02:53:24 PM 39.4200 -100.3619 127° Southeast 557 641 41,000  Level Denver Center
Tue 02:54:26 PM 39.3314 -100.2089 127° Southeast 556 640 41,000  Level Denver Center
Tue 02:55:27 PM 39.2275 -100.0314 127° Southeast 557 641 41,000  Level Denver Center
Tue 02:56:29 PM 39.1350 -99.8722 127° Southeast 559 643 41,000  Level Denver Center
Tue 02:57:31 PM 39.0447 -99.7211 128° Southeast 557 641 41,000  Level Denver Center
Tue 02:58:33 PM 38.9397 -99.5417 127° Southeast 559 643 41,000  Level Denver Center
Tue 02:59:35 PM 38.8492 -99.3900 127° Southeast 559 643 41,000  Level Denver Center
Tue 03:00:36 PM 38.7439 -99.2128 127° Southeast 560 644 41,000  Level Denver Center
Tue 03:01:57 PM 38.6225 -99.0100 127° Southeast 558 642 41,000  Level Kansas City Center
Tue 03:03:01 PM 38.5264 -98.8531 128° Southeast 559 643 41,000  Level Kansas City Center
Tue 03:04:02 PM 38.4314 -98.6964 128° Southeast 560 644 41,000  Level Kansas City Center
Tue 03:05:05 PM 38.3353 -98.5406 128° Southeast 559 643 41,000  Level Kansas City Center
Tue 03:06:06 PM 38.2403 -98.3842 128° Southeast 560 644 41,000  Level Kansas City Center
Tue 03:07:09 PM 38.1256 -98.1961 128° Southeast 561 646 41,000  Level Kansas City Center
Tue 03:08:09 PM 38.0406 -98.0578 128° Southeast 559 643 41,000  Level Kansas City Center
Tue 03:09:13 PM 37.9422 -97.9022 129° Southeast 560 644 41,000  Level Kansas City Center
Tue 03:10:14 PM 37.8272 -97.7167 128° Southeast 559 643 41,000  Level Kansas City Center
Tue 03:11:15 PM 37.7281 -97.5650 130° Southeast 558 642 41,000  Level Kansas City Center
Tue 03:12:17 PM 37.6103 -97.4292 138° Southeast 570 656 41,000  Level Kansas City Center
Tue 03:13:20 PM 37.4978 -97.2975 137° Southeast 553 636 41,000  Level Kansas City Center
Tue 03:14:21 PM 37.3850 -97.1667 137° Southeast 552 635 41,000  Level Kansas City Center
Tue 03:15:22 PM 37.2728 -97.0372 137° Southeast 550 633 41,000  Level Kansas City Center
Tue 03:16:23 PM 37.1567 -96.9078 138° Southeast 547 629 41,000  Level Kansas City Center
Tue 03:17:27 PM 37.0475 -96.7825 137° Southeast 546 628 41,000  Level Kansas City Center
Tue 03:18:27 PM 36.9086 -96.6269 138° Southeast 548 631 41,000  Level Kansas City Center
Tue 03:19:31 PM 36.7989 -96.4967 136° Southeast 545 627 41,000  Level Kansas City Center
Tue 03:20:31 PM 36.6853 -96.3706 138° Southeast 545 627 41,000  Level Kansas City Center
Tue 03:21:36 PM 36.5717 -96.2433 138° Southeast 548 631 41,000  Level Kansas City Center
Tue 03:22:36 PM 36.4592 -96.1186 138° Southeast 546 628 41,000  Level Kansas City Center
Tue 03:23:37 PM 36.3475 -95.9933 138° Southeast 545 627 41,000  Level Kansas City Center
Tue 03:24:38 PM 36.2139 -95.8464 138° Southeast 542 624 41,000  Level Kansas City Center
Tue 03:25:41 PM 36.1131 -95.7361 139° Southeast 540 621 41,000  Level Kansas City Center
Tue 03:26:42 PM 35.9917 -95.6025 138° Southeast 539 620 41,000  Level Kansas City Center
Tue 03:27:44 PM 35.8800 -95.4811 139° Southeast 538 619 41,000  Level Kansas City Center
Tue 03:28:44 PM 35.7678 -95.3583 138° Southeast 540 621 41,000  Level Kansas City Center
Tue 03:29:46 PM 35.6550 -95.2372 139° Southeast 540 621 41,000  Level Kansas City Center
Tue 03:30:17 PM 35.5856 -95.1631 139° Southeast 540 621 41,000  Level Memphis Center
Tue 03:31:19 PM 35.4731 -95.0408 138° Southeast 541 623 41,000  Level Memphis Center
Tue 03:32:21 PM 35.3600 -94.9189 139° Southeast 542 624 41,000  Level Memphis Center
Tue 03:33:23 PM 35.2469 -94.7975 139° Southeast 541 623 41,000  Level Memphis Center
Tue 03:34:25 PM 35.1103 -94.6533 139° Southeast 541 623 41,000  Level Memphis Center
Tue 03:35:27 PM 34.9953 -94.5311 139° Southeast 539 620 41,000  Level Memphis Center
Tue 03:36:29 PM 34.8819 -94.4117 139° Southeast 541 623 41,000  Level Memphis Center
Tue 03:37:31 PM 34.7692 -94.2928 139° Southeast 539 620 41,000  Level Memphis Center
Tue 03:38:33 PM 34.6558 -94.1744 139° Southeast 539 620 41,000  Level Memphis Center
Tue 03:39:35 PM 34.5350 -94.0467 139° Southeast 539 620 41,000  Level Memphis Center
Tue 03:40:37 PM 34.4081 -93.9153 139° Southeast 538 619 41,000  Level Memphis Center
Tue 03:41:39 PM 34.3067 -93.8111 140° Southeast 537 618 41,000  Level Memphis Center
Tue 03:42:41 PM 34.1936 -93.6939 139° Southeast 536 617 41,000  Level Memphis Center
Tue 03:43:43 PM 34.0561 -93.5531 140° Southeast 537 618 41,000  Level Memphis Center
Tue 03:44:45 PM 33.9411 -93.4356 140° Southeast 539 620 41,000  Level Memphis Center
Tue 03:45:47 PM 33.8253 -93.3169 140° Southeast 541 623 41,000  Level Memphis Center
Tue 03:46:49 PM 33.7089 -93.1986 140° Southeast 544 626 41,000  Level Memphis Center
Tue 03:47:51 PM 33.5919 -93.0819 140° Southeast 545 627 41,000  Level Memphis Center
Tue 03:48:53 PM 33.4758 -92.9636 140° Southeast 545 627 41,000  Level Memphis Center
Tue 03:49:55 PM 33.3586 -92.8464 140° Southeast 545 627 41,000  Level Memphis Center
Tue 03:50:57 PM 33.2419 -92.7317 141° Southeast 545 627 41,000  Level Memphis Center
Tue 03:51:58 PM 33.0964 -92.6019 143° Southeast 543 625 41,000  Level Memphis Center
Tue 03:53:00 PM 32.9747 -92.4961 144° Southeast 542 624 41,000  Level Memphis Center
Tue 03:54:02 PM 32.8528 -92.3894 144° Southeast 543 625 41,000  Level Memphis Center
Tue 03:55:21 PM 32.6917 -92.2494 144° Southeast 539 620 41,000  Level Houston Center
Tue 03:56:30 PM 32.5700 -92.1433 144° Southeast 534 615 41,000  Level Fort Worth Center
Tue 03:57:32 PM 32.4261 -92.0172 143° Southeast 535 616 41,000  Level Fort Worth Center
Tue 03:58:28 PM 32.3300 -91.9381 145° Southeast 532 612 41,000  Level Houston Center
Tue 03:59:30 PM 32.2083 -91.8328 144° Southeast 538 619 41,000 -1,548 Level Houston Center
Tue 04:00:32 PM 32.0650 -91.7106 144° Southeast 531 611 37,800 -2,855 Descending Houston Center
Tue 04:01:34 PM 31.9475 -91.6106 144° Southeast 522 601 35,100 -2,661 Descending Houston Center
Tue 04:02:36 PM 31.8300 -91.5117 144° Southeast 522 601 32,300 -2,710 Descending Houston Center
Tue 04:03:38 PM 31.7144 -91.4136 144° Southeast 516 594 29,500 -2,688 Descending Houston Center
Tue 04:04:41 PM 31.6008 -91.3183 144° Southeast 508 585 26,700 -2,592 Descending Houston Center
Tue 04:05:43 PM 31.4964 -91.2300 144° Southeast 476 548 24,100 -1,403 Descending Houston Center
Tue 04:06:45 PM 31.3697 -91.1225 144° Southeast 468 539 23,800 -1,452 Descending Houston Center
Tue 04:07:47 PM 31.2694 -91.0383 144° Southeast 454 522 21,100 -2,661 Descending Houston Center
Tue 04:08:49 PM 31.1703 -90.9564 145° Southeast 442 509 18,300 -2,661 Descending Houston Center
Tue 04:09:51 PM 31.0733 -90.8733 144° Southeast 435 501 15,600 -2,613 Descending Houston Center
Tue 04:10:53 PM 30.9786 -90.7967 145° Southeast 420 483 12,900 -2,747 Descending Houston Center
Tue 04:11:14 PM 30.9392 -90.7650 145° Southeast 365 420 11,800 -2,483 Descending Houston Center
Tue 04:11:51 PM 30.8856 -90.7183 143° Southeast 357 411 10,500 -2,000 Descending Houston Center
Tue 04:11:56 PM 30.8808 -90.7156 153° Southeast 369 425 10,400 -1,600 Descending Houston Center
Tue 04:12:51 PM 30.8131 -90.6606 145° Southeast 305 351 8,900 -1,548 Descending Houston Center
Tue 04:12:58 PM 30.8089 -90.6578 150° Southeast 330 380 8,800 -2,361 Descending Houston Center
Tue 04:13:52 PM 30.7472 -90.6169 150° Southeast 265 305 6,500 -1,839 Descending Houston Center
Tue 04:14:00 PM 30.7372 -90.6186 188° South 291 335 6,900 -2,066 Climbing Houston Center
Tue 04:14:53 PM 30.6772 -90.5858 155° Southeast 260 299 4,400 -1,947 Descending Houston Center
Tue 04:15:54 PM 30.6239 -90.5417 145° Southeast 225 259 3,200 -1,180 Descending Houston Center

Login

Don't have an account? Register now (free) for customized features, flight alerts, and more!